Time;durP1;ratioP1;P1;durP2;ratioP2;P2;SDS_P1;SDS_P2;PMS_P1;PMS_P2;Temp;Humidity;BMP_temperature;BMP_pressure;BME280_temperature;BME280_humidity;BME280_pressure;Samples;Min_cycle;Max_cycle;Signal;HPM_P1;HPM_P2
2021/06/17 00:01:25;;;;;;;5.53;4.13;;;;;;;21.36;56.84;99066.31;5033164;28;20026;-68
2021/06/17 00:03:51;;;;;;;5.13;3.83;;;;;;;21.38;56.34;99066.16;5033206;28;20176;-66
2021/06/17 00:06:16;;;;;;;5.78;3.33;;;;;;;21.38;56.16;99066.97;5032956;28;20029;-66
2021/06/17 00:08:41;;;;;;;5.60;3.97;;;;;;;21.43;55.68;99067.34;5034772;28;20456;-68
2021/06/17 00:11:07;;;;;;;8.15;3.90;;;;;;;21.40;55.62;99074.91;5032380;28;20100;-66
2021/06/17 00:13:36;;;;;;;6.68;3.42;;;;;;;21.43;55.33;99074.56;5033678;28;20029;-66
2021/06/17 00:16:04;;;;;;;4.72;3.42;;;;;;;21.42;54.97;99072.91;5033121;28;20060;-66
2021/06/17 00:18:30;;;;;;;7.57;4.32;;;;;;;21.40;55.47;99070.38;5032470;28;20039;-67
2021/06/17 00:20:56;;;;;;;4.15;3.33;;;;;;;21.33;55.88;99063.94;5032939;28;20037;-67
2021/06/17 00:23:22;;;;;;;7.80;4.25;;;;;;;21.28;55.79;99057.41;5033221;28;20097;-66
2021/06/17 00:25:47;;;;;;;5.00;3.60;;;;;;;21.21;56.14;99055.34;5031158;28;20037;-67
2021/06/17 00:28:13;;;;;;;7.22;3.83;;;;;;;21.18;56.21;99058.38;5033735;28;20033;-66
2021/06/17 00:30:40;;;;;;;6.97;3.85;;;;;;;21.17;55.60;99056.69;5032464;28;20505;-66
2021/06/17 00:33:05;;;;;;;4.53;3.60;;;;;;;21.20;55.45;99050.16;5032565;28;20030;-67
2021/06/17 00:38:06;;;;;;;;;;;;;;;21.17;55.57;99054.00;5415773;23;20400;-67
2021/06/17 00:40:32;;;;;;;9.95;3.95;;;;;;;21.12;56.38;99061.69;5009473;28;19924;-66
2021/06/17 00:42:59;;;;;;;5.82;3.80;;;;;;;21.05;56.18;99044.59;5037068;28;20061;-67
2021/06/17 00:45:32;;;;;;;6.60;3.90;;;;;;;21.02;56.38;99039.56;5028841;28;20034;-67
2021/06/17 00:47:58;;;;;;;6.75;3.83;;;;;;;21.01;56.20;99038.69;5029138;28;20240;-67
2021/06/17 00:50:27;;;;;;;4.53;4.00;;;;;;;20.91;56.53;99046.00;5029054;28;20125;-67
2021/06/17 00:52:52;;;;;;;5.40;3.97;;;;;;;20.90;56.41;99044.34;5028988;28;20080;-67
2021/06/17 00:55:18;;;;;;;5.47;3.90;;;;;;;20.93;56.17;99037.81;5029228;28;20045;-67
2021/06/17 00:57:44;;;;;;;6.30;3.72;;;;;;;20.92;55.92;99036.13;5029058;28;20489;-67
2021/06/17 01:00:13;;;;;;;7.75;4.47;;;;;;;20.87;56.37;99039.31;5028731;28;20047;-66
2021/06/17 01:02:38;;;;;;;5.60;4.07;;;;;;;20.79;57.17;99036.56;5005151;28;20400;-65
2021/06/17 01:05:11;;;;;;;7.00;4.75;;;;;;;20.71;56.87;99031.19;5028876;28;20033;-67
2021/06/17 01:07:47;;;;;;;5.60;3.67;;;;;;;20.74;57.13;99030.84;5028399;28;20037;-67
2021/06/17 01:10:45;;;;;;;7.28;4.35;;;;;;;20.69;56.76;99025.97;5028962;28;20034;-67
2021/06/17 01:13:32;;;;;;;6.97;4.53;;;;;;;20.71;56.83;99031.19;5015902;28;20034;-66
2021/06/17 01:16:06;;;;;;;7.03;4.25;;;;;;;20.62;57.43;99032.97;5029693;28;20044;-67
2021/06/17 01:18:32;;;;;;;7.97;4.03;;;;;;;20.57;57.53;99035.28;5027485;28;20567;-67
2021/06/17 01:21:02;;;;;;;5.32;4.00;;;;;;;20.57;57.34;99041.47;5028689;28;20034;-67
2021/06/17 01:24:12;;;;;;;14.48;4.13;;;;;;;20.57;57.21;99038.78;5028714;28;20370;-67
2021/06/17 01:26:53;;;;;;;6.63;4.53;;;;;;;20.58;57.16;99039.66;5028307;28;20562;-67
2021/06/17 01:29:23;;;;;;;7.65;4.38;;;;;;;20.57;57.53;99048.66;5016927;28;20105;-67
2021/06/17 01:31:51;;;;;;;6.75;3.78;;;;;;;20.55;57.44;99047.97;5018975;28;20026;-68
2021/06/17 01:34:18;;;;;;;6.60;4.20;;;;;;;20.54;57.62;99044.44;5032949;28;20065;-67
2021/06/17 01:36:48;;;;;;;4.70;3.88;;;;;;;20.56;57.19;99049.69;5032212;28;20037;-67
2021/06/17 01:39:17;;;;;;;5.85;3.88;;;;;;;20.58;56.94;99050.34;5032560;28;20090;-67
2021/06/17 01:41:47;;;;;;;5.65;3.80;;;;;;;20.59;57.28;99050.19;5032982;28;20041;-66
2021/06/17 01:44:14;;;;;;;4.78;3.63;;;;;;;20.55;57.36;99043.47;5032908;28;20044;-66
2021/06/17 01:46:41;;;;;;;5.68;3.55;;;;;;;20.51;57.31;99046.59;5032593;28;20416;-67
2021/06/17 01:49:07;;;;;;;4.60;3.92;;;;;;;20.49;57.28;99037.88;5033155;28;20113;-67
2021/06/17 01:51:36;;;;;;;5.47;3.92;;;;;;;20.48;57.63;99037.03;5032615;28;20056;-67
2021/06/17 01:54:03;;;;;;;4.28;3.45;;;;;;;20.46;57.05;99044.38;5032669;28;20041;-67
2021/06/17 01:56:29;;;;;;;5.22;4.38;;;;;;;20.50;57.01;99032.38;5032697;28;20506;-67
2021/06/17 01:58:58;;;;;;;6.50;4.90;;;;;;;20.52;56.73;99042.91;5032553;28;20045;-67
2021/06/17 02:01:30;;;;;;;8.30;4.15;;;;;;;20.56;57.14;99034.44;5032696;28;20025;-67
2021/06/17 02:03:56;;;;;;;9.32;5.13;;;;;;;20.54;57.58;99047.09;5031737;28;20026;-66
2021/06/17 02:06:22;;;;;;;9.93;4.40;;;;;;;20.53;56.72;99040.09;5031889;28;20496;-67
2021/06/17 02:08:56;;;;;;;9.23;4.13;;;;;;;20.60;56.27;99037.66;5031991;28;20061;-67
2021/06/17 02:11:24;;;;;;;6.95;3.70;;;;;;;20.62;56.06;99046.34;5032111;28;20060;-66
2021/06/17 02:13:52;;;;;;;5.03;4.00;;;;;;;20.66;57.04;99045.03;5031942;28;20037;-67
2021/06/17 02:16:19;;;;;;;5.82;4.57;;;;;;;20.65;56.91;99047.88;5031796;28;20036;-66
2021/06/17 02:18:46;;;;;;;6.70;4.53;;;;;;;20.67;56.84;99045.88;5030259;28;20029;-67
2021/06/17 02:21:13;;;;;;;6.53;4.63;;;;;;;20.66;57.18;99049.56;5031803;28;20477;-67
2021/06/17 02:23:43;;;;;;;7.00;3.70;;;;;;;20.63;56.89;99047.22;5031942;28;20025;-67
2021/06/17 02:26:09;;;;;;;6.32;3.97;;;;;;;20.61;57.53;99046.53;5031229;28;20037;-67
2021/06/17 02:28:41;;;;;;;4.25;3.60;;;;;;;20.60;57.11;99048.38;5031316;28;20056;-67
2021/06/17 02:31:10;;;;;;;6.97;4.20;;;;;;;20.58;57.21;99043.16;5031819;28;20033;-66
2021/06/17 02:33:37;;;;;;;4.85;3.78;;;;;;;20.55;57.10;99032.78;5031525;28;20025;-67
2021/06/17 02:36:04;;;;;;;5.32;4.15;;;;;;;20.55;56.98;99037.25;5031579;28;20428;-66
2021/06/17 02:38:33;;;;;;;6.05;3.83;;;;;;;20.53;57.63;99036.56;5030780;28;20041;-67
2021/06/17 02:41:08;;;;;;;8.18;3.70;;;;;;;20.50;57.75;99032.38;5016379;28;20544;-66
2021/06/17 02:43:36;;;;;;;8.60;4.50;;;;;;;20.49;57.60;99024.50;4991740;28;20053;-67
2021/06/17 02:46:03;;;;;;;8.35;4.00;;;;;;;20.48;57.43;99020.16;4991739;28;20049;-67
2021/06/17 02:48:28;;;;;;;4.75;3.58;;;;;;;20.49;57.56;99019.13;4991489;28;20481;-67
2021/06/17 02:50:54;;;;;;;6.57;3.85;;;;;;;20.45;57.32;99015.91;4992307;28;20039;-68
2021/06/17 02:53:21;;;;;;;5.63;3.67;;;;;;;20.46;56.47;99014.09;4991598;28;20031;-66
2021/06/17 02:55:47;;;;;;;8.20;4.13;;;;;;;20.43;56.63;99017.06;4991984;28;20046;-67
2021/06/17 02:58:49;;;;;;;5.35;3.97;;;;;;;20.47;56.23;99015.78;4991432;28;20520;-67
2021/06/17 03:01:42;;;;;;;9.07;4.95;;;;;;;20.49;56.95;99009.25;4991665;28;20093;-66
2021/06/17 03:04:16;;;;;;;7.10;4.63;;;;;;;20.48;56.19;99012.94;4991121;28;20026;-66
2021/06/17 03:06:47;;;;;;;7.97;4.20;;;;;;;20.50;57.56;99010.09;4991375;28;20046;-67
2021/06/17 03:09:13;;;;;;;5.15;4.18;;;;;;;20.45;57.42;99010.56;4991483;28;20449;-67
2021/06/17 03:11:42;;;;;;;4.63;3.55;;;;;;;20.44;56.88;99006.22;4991665;28;20030;-67
2021/06/17 03:14:18;;;;;;;5.80;4.10;;;;;;;20.45;56.34;99009.72;4991483;28;20034;-67
2021/06/17 03:16:49;;;;;;;4.65;3.63;;;;;;;20.43;57.76;99020.59;4991077;28;20061;-67
2021/06/17 03:19:17;;;;;;;5.60;4.00;;;;;;;20.44;57.50;99010.72;4991230;28;20026;-67
2021/06/17 03:21:46;;;;;;;5.93;3.88;;;;;;;20.42;56.67;99010.03;4991384;28;20076;-67
2021/06/17 03:24:13;;;;;;;9.23;3.95;;;;;;;20.46;55.22;99014.94;4991009;28;20058;-67
2021/06/17 03:26:42;;;;;;;6.25;4.15;;;;;;;20.48;57.46;99012.13;4991259;28;20408;-67
2021/06/17 03:29:09;;;;;;;7.03;4.03;;;;;;;20.46;57.57;99011.41;4991102;28;20030;-67
2021/06/17 03:31:36;;;;;;;7.40;4.15;;;;;;;20.47;57.17;99016.59;4991206;28;20095;-66
2021/06/17 03:34:04;;;;;;;10.82;4.00;;;;;;;20.50;57.19;99018.97;4991669;28;20034;-68
2021/06/17 03:36:32;;;;;;;5.38;3.95;;;;;;;20.49;57.43;99011.94;4991074;28;20026;-67
2021/06/17 03:38:58;;;;;;;7.55;4.07;;;;;;;20.51;57.22;99012.63;4990717;28;20046;-67
2021/06/17 03:41:25;;;;;;;7.53;3.67;;;;;;;20.53;57.50;99010.63;4991390;28;20752;-67
2021/06/17 03:43:52;;;;;;;5.93;4.38;;;;;;;20.55;56.98;99006.00;4979127;28;20034;-65
2021/06/17 03:46:19;;;;;;;4.70;3.90;;;;;;;20.54;57.13;99003.44;4990728;28;20061;-67
2021/06/17 03:48:46;;;;;;;5.03;4.28;;;;;;;20.60;56.30;99002.84;4990845;28;22146;-67
2021/06/17 03:51:12;;;;;;;5.20;4.10;;;;;;;20.67;56.07;99011.06;4990439;28;20104;-67
2021/06/17 03:53:39;;;;;;;5.22;3.63;;;;;;;20.70;56.86;98998.19;4989805;28;20034;-66
2021/06/17 03:56:05;;;;;;;5.65;3.65;;;;;;;20.75;53.67;99001.25;4990320;28;20038;-67
2021/06/17 03:58:31;;;;;;;11.20;4.72;;;;;;;20.75;56.15;98987.00;4990276;28;20058;-66
2021/06/17 04:00:57;;;;;;;9.25;3.58;;;;;;;20.80;54.03;98988.19;4990279;28;20038;-67
2021/06/17 04:03:25;;;;;;;7.55;4.15;;;;;;;20.91;55.11;98994.28;4990600;28;20026;-66
2021/06/17 04:05:51;;;;;;;4.93;3.60;;;;;;;20.98;54.72;98988.09;4978518;28;20401;-68
2021/06/17 04:08:19;;;;;;;4.03;3.05;;;;;;;21.10;54.95;98998.53;4988524;28;20034;-68
2021/06/17 04:10:46;;;;;;;4.15;3.08;;;;;;;21.16;53.05;98997.88;4990518;28;20104;-68
2021/06/17 04:13:13;;;;;;;5.03;3.47;;;;;;;21.24;54.61;99005.97;4989013;28;20109;-67
2021/06/17 04:15:39;;;;;;;9.88;3.70;;;;;;;21.29;54.05;99006.31;4988959;28;20058;-67
2021/06/17 04:18:05;;;;;;;7.13;3.15;;;;;;;21.35;54.62;99000.28;4988947;28;20047;-67
2021/06/17 04:20:36;;;;;;;4.43;3.63;;;;;;;21.40;54.39;98994.47;4990990;28;20030;-67
2021/06/17 04:23:04;;;;;;;7.10;3.60;;;;;;;21.51;54.51;99004.88;4991184;28;20501;-68
2021/06/17 04:25:30;;;;;;;7.38;3.63;;;;;;;21.62;54.72;99003.72;4991362;28;20472;-66
2021/06/17 04:27:58;;;;;;;7.68;3.38;;;;;;;21.76;54.21;99008.44;4990900;28;20064;-66
2021/06/17 04:30:27;;;;;;;10.73;3.78;;;;;;;21.91;52.75;98997.03;4991354;28;20033;-66
2021/06/17 04:32:55;;;;;;;4.82;2.97;;;;;;;22.04;51.23;98995.50;4978560;28;20872;-67
2021/06/17 04:35:22;;;;;;;5.82;2.95;;;;;;;22.21;51.44;98995.53;4978284;28;20066;-67
2021/06/17 04:37:48;;;;;;;5.90;3.10;;;;;;;22.40;50.45;99000.56;4989870;28;20030;-67
2021/06/17 04:40:15;;;;;;;5.10;2.55;;;;;;;22.55;48.07;98998.00;4990121;28;20038;-67
2021/06/17 04:42:41;;;;;;;11.50;4.05;;;;;;;22.68;49.96;98992.09;4990160;28;20113;-66
2021/06/17 04:45:08;;;;;;;4.22;3.10;;;;;;;22.84;50.24;98993.84;4990294;28;20041;-66
2021/06/17 04:47:37;;;;;;;5.28;3.20;;;;;;;22.94;49.75;99008.78;4989855;28;20092;-66
2021/06/17 04:50:07;;;;;;;4.53;3.33;;;;;;;23.03;49.63;99014.16;4989848;28;20038;-67
2021/06/17 04:52:36;;;;;;;5.30;3.10;;;;;;;23.05;51.02;99004.06;4992273;28;20030;-67
2021/06/17 04:55:04;;;;;;;4.00;3.47;;;;;;;23.08;51.14;99009.09;4989490;28;20126;-66
2021/06/17 04:57:30;;;;;;;4.35;3.17;;;;;;;23.10;50.71;99018.66;4989777;28;20050;-67
2021/06/17 04:59:55;;;;;;;4.30;2.70;;;;;;;23.16;50.30;99022.53;4989816;28;20073;-67
2021/06/17 05:02:20;;;;;;;5.22;3.25;;;;;;;23.19;50.52;99024.84;4989750;28;20121;-67
2021/06/17 05:04:46;;;;;;;4.65;3.55;;;;;;;23.22;50.28;99020.97;4989267;28;20486;-67
2021/06/17 05:12:25;;;;;;;9.38;3.78;;;;;;;23.39;49.46;99038.69;4993206;28;20546;-67
2021/06/17 05:14:50;;;;;;;4.47;3.47;;;;;;;23.45;49.27;99034.44;4992946;28;20109;-68
2021/06/17 05:17:15;;;;;;;10.07;3.72;;;;;;;23.47;50.10;99035.94;4993274;28;20039;-67
2021/06/17 05:19:41;;;;;;;9.95;3.53;;;;;;;23.52;50.35;99043.50;4993896;28;20034;-65
2021/06/17 05:22:08;;;;;;;6.95;3.97;;;;;;;23.58;49.80;99040.13;4994177;28;20405;-67
2021/06/17 05:24:34;;;;;;;5.00;4.05;;;;;;;23.61;49.61;99039.75;4993665;28;20038;-67
2021/06/17 05:26:59;;;;;;;9.55;3.35;;;;;;;23.72;48.06;99038.50;4993073;28;20049;-66
2021/06/17 05:29:25;;;;;;;8.65;3.72;;;;;;;23.83;47.98;99032.75;4994345;28;20093;-68
2021/06/17 05:31:50;;;;;;;4.57;3.33;;;;;;;23.96;45.71;99029.44;4991770;28;20129;-69
2021/06/17 05:34:15;;;;;;;10.07;4.32;;;;;;;24.17;46.70;99035.00;4992837;28;20116;-66
2021/06/17 05:36:40;;;;;;;4.13;3.47;;;;;;;24.35;44.56;99039.22;4992896;28;20050;-67
2021/06/17 05:39:06;;;;;;;5.13;2.70;;;;;;;24.58;43.75;99037.31;4993224;28;20066;-66
2021/06/17 05:41:31;;;;;;;4.00;3.55;;;;;;;24.70;43.23;99044.97;4991705;28;20034;-67
2021/06/17 05:43:57;;;;;;;5.85;3.17;;;;;;;24.92;42.74;99044.03;4993234;28;20034;-67
2021/06/17 05:46:22;;;;;;;5.60;2.80;;;;;;;25.00;43.12;99040.41;4993460;28;20034;-68
2021/06/17 05:48:48;;;;;;;6.32;3.70;;;;;;;25.02;42.72;99044.59;4992850;28;20058;-66
2021/06/17 05:51:13;;;;;;;4.80;3.42;;;;;;;25.02;43.40;99044.59;4993296;28;20469;-68
2021/06/17 05:53:39;;;;;;;11.43;3.92;;;;;;;25.06;44.32;99045.06;4993311;28;20060;-66
2021/06/17 05:56:04;;;;;;;5.10;3.50;;;;;;;25.15;44.68;99049.31;4992604;28;20069;-67
2021/06/17 05:58:30;;;;;;;8.75;3.70;;;;;;;25.21;44.98;99051.31;4992762;28;20023;-67
2021/06/17 06:00:56;;;;;;;5.55;3.50;;;;;;;25.65;42.19;99046.84;4993546;28;20113;-67
2021/06/17 06:03:21;;;;;;;5.57;3.20;;;;;;;25.73;42.61;99052.13;4993283;28;20384;-67
2021/06/17 06:05:46;;;;;;;5.10;4.10;;;;;;;25.78;41.70;99055.09;4992703;28;20030;-67
2021/06/17 06:08:12;;;;;;;6.03;3.20;;;;;;;26.14;41.38;99054.25;4992086;28;20058;-67
2021/06/17 06:10:39;;;;;;;7.88;3.92;;;;;;;26.51;39.88;99047.69;4991565;28;20116;-69
2021/06/17 06:13:05;;;;;;;6.10;3.38;;;;;;;26.79;38.93;99048.72;4992290;28;20034;-67
2021/06/17 06:15:33;;;;;;;5.38;4.20;;;;;;;27.20;38.20;99051.50;4992568;28;20031;-67
2021/06/17 06:18:10;;;;;;;7.80;3.47;;;;;;;27.29;38.37;99052.97;4991431;28;20560;-67
2021/06/17 06:20:38;;;;;;;22.83;4.63;;;;;;;27.25;39.06;99050.88;4992781;28;20034;-66
2021/06/17 06:23:04;;;;;;;10.10;4.47;;;;;;;27.24;38.99;99049.19;4992578;28;20045;-66
2021/06/17 06:25:30;;;;;;;6.32;3.42;;;;;;;27.25;39.68;99040.06;4992126;28;20591;-67
2021/06/17 06:27:55;;;;;;;8.80;3.65;;;;;;;27.28;39.97;99039.66;4992407;28;20042;-66
2021/06/17 06:30:21;;;;;;;3.83;3.30;;;;;;;27.36;40.28;99042.19;4992460;28;20480;-68
2021/06/17 06:32:46;;;;;;;4.45;2.75;;;;;;;27.34;40.13;99041.53;4991917;28;20057;-67
2021/06/17 06:35:12;;;;;;;6.25;3.42;;;;;;;27.38;40.62;99046.34;4990772;28;20104;-66
2021/06/17 06:37:39;;;;;;;7.47;3.85;;;;;;;27.39;41.03;99047.19;4990296;28;20038;-67
2021/06/17 06:40:05;;;;;;;5.75;3.13;;;;;;;27.37;40.08;99051.97;4991706;28;20038;-67
2021/06/17 06:42:31;;;;;;;6.35;3.38;;;;;;;27.34;40.72;99055.06;4991726;28;20061;-68
2021/06/17 06:44:56;;;;;;;8.90;3.40;;;;;;;27.31;41.37;99063.59;4992063;28;20553;-68
2021/06/17 06:47:21;;;;;;;10.40;3.75;;;;;;;27.30;40.94;99062.78;4991665;28;20030;-67
2021/06/17 06:49:47;;;;;;;5.85;3.38;;;;;;;27.27;42.04;99048.78;4990219;28;20038;-68
2021/06/17 06:52:12;;;;;;;6.25;2.92;;;;;;;27.38;40.76;99038.22;4991800;28;20508;-67
2021/06/17 06:54:38;;;;;;;5.40;3.78;;;;;;;27.87;38.49;99033.59;4991264;28;20607;-68
2021/06/17 06:57:03;;;;;;;7.78;3.38;;;;;;;28.10;38.44;99035.09;4993604;28;20050;-66
2021/06/17 06:59:29;;;;;;;5.35;3.45;;;;;;;28.34;38.18;99042.59;4991493;28;20030;-66
2021/06/17 07:01:54;;;;;;;5.30;3.30;;;;;;;28.57;37.77;99044.06;4990467;28;20084;-67
2021/06/17 07:04:20;;;;;;;5.95;3.35;;;;;;;28.67;37.72;99055.31;4991726;28;20034;-67
2021/06/17 07:06:47;;;;;;;5.47;3.83;;;;;;;28.76;37.51;99062.19;4991326;28;20390;-68
2021/06/17 07:09:12;;;;;;;5.25;3.67;;;;;;;28.88;38.13;99063.22;4991535;28;20065;-68
2021/06/17 07:11:38;;;;;;;9.02;3.65;;;;;;;28.98;37.69;99079.06;4991489;28;20054;-67
2021/06/17 07:14:05;;;;;;;9.50;3.22;;;;;;;29.34;36.81;99088.63;4991172;28;20049;-69
2021/06/17 07:16:30;;;;;;;6.32;3.47;;;;;;;29.48;35.51;99082.06;4991007;28;20362;-67
2021/06/17 07:18:58;;;;;;;6.00;3.70;;;;;;;29.68;34.93;99103.75;5001796;28;20038;-73
2021/06/17 07:21:23;;;;;;;5.85;3.80;;;;;;;29.67;34.10;99101.25;5001317;28;20038;-73
2021/06/17 07:23:51;;;;;;;7.90;3.60;;;;;;;29.78;33.98;99105.16;4999936;28;20034;-73
2021/06/17 07:26:20;;;;;;;29.80;4.88;;;;;;;29.74;33.88;99115.63;5010921;28;20121;-74
2021/06/17 07:28:45;;;;;;;5.25;3.60;;;;;;;29.79;33.90;99106.84;5010971;28;20085;-73
2021/06/17 07:31:11;;;;;;;5.65;3.17;;;;;;;29.52;34.04;99110.47;5010856;28;20444;-75
2021/06/17 07:33:36;;;;;;;4.68;3.97;;;;;;;29.93;34.00;99113.88;5010635;28;20044;-73
2021/06/17 07:36:02;;;;;;;8.20;3.97;;;;;;;30.50;33.21;99108.50;4995080;28;20046;-75
2021/06/17 07:38:27;;;;;;;5.28;3.38;;;;;;;30.54;33.45;99104.25;4990272;28;20437;-74
2021/06/17 07:40:52;;;;;;;9.18;3.80;;;;;;;31.05;32.34;99111.34;4991207;28;20049;-73
2021/06/17 07:43:18;;;;;;;7.15;3.25;;;;;;;31.39;31.95;99109.13;5003542;28;20050;-73
2021/06/17 07:45:43;;;;;;;6.78;4.07;;;;;;;31.79;31.24;99112.19;5005379;28;20528;-74
2021/06/17 07:48:10;;;;;;;4.75;3.70;;;;;;;32.23;30.88;99123.75;5004588;28;20042;-72
2021/06/17 07:50:40;;;;;;;10.68;3.97;;;;;;;32.38;30.70;99109.66;5003093;28;20037;-73
2021/06/17 07:53:05;;;;;;;6.68;4.28;;;;;;;32.87;30.58;99112.25;5004326;28;20036;-75
2021/06/17 07:55:31;;;;;;;6.68;4.28;;;;;;;32.60;30.80;99120.06;4985647;28;20038;-75
2021/06/17 07:57:56;;;;;;;7.22;4.15;;;;;;;32.57;30.73;99115.91;5000517;28;20069;-75
2021/06/17 08:00:22;;;;;;;6.70;3.88;;;;;;;32.75;30.96;99105.97;5004834;28;20038;-74
2021/06/17 08:02:47;;;;;;;10.05;4.30;;;;;;;32.63;30.89;99105.94;5005044;28;20100;-74
2021/06/17 08:05:12;;;;;;;7.05;3.47;;;;;;;32.43;31.09;99114.44;5004788;28;20034;-74
2021/06/17 08:07:38;;;;;;;7.80;3.33;;;;;;;32.33;31.51;99104.09;5004923;28;20033;-74
2021/06/17 08:10:06;;;;;;;5.03;3.67;;;;;;;32.27;31.62;99096.84;4988655;28;20104;-73
2021/06/17 08:12:32;;;;;;;5.93;4.50;;;;;;;32.42;31.52;99093.69;4985646;28;20038;-74
2021/06/17 08:14:57;;;;;;;7.95;4.38;;;;;;;32.54;31.43;99089.09;4985282;28;20042;-75
2021/06/17 08:17:23;;;;;;;8.73;3.75;;;;;;;32.21;32.02;99082.22;4985061;28;20038;-73
2021/06/17 08:19:48;;;;;;;6.10;4.38;;;;;;;32.11;32.46;99081.97;4990059;28;20065;-74
2021/06/17 08:22:13;;;;;;;4.63;3.47;;;;;;;32.03;32.48;99085.88;5008383;28;20034;-74
2021/06/17 08:24:40;;;;;;;7.40;4.38;;;;;;;31.82;32.79;99079.00;5007846;28;20041;-73
2021/06/17 08:27:07;;;;;;;8.63;4.05;;;;;;;31.59;33.31;99092.53;5017792;28;20033;-74
2021/06/17 08:29:33;;;;;;;5.75;3.58;;;;;;;31.24;33.92;99083.06;5001362;28;20041;-74
2021/06/17 08:31:58;;;;;;;8.18;4.35;;;;;;;31.12;34.37;99073.16;5021060;28;20041;-73
2021/06/17 08:34:24;;;;;;;7.47;3.83;;;;;;;31.12;34.33;99070.44;5008808;28;20042;-73
2021/06/17 08:36:53;;;;;;;9.55;4.30;;;;;;;31.20;34.08;99067.41;4986409;28;20038;-74
2021/06/17 08:39:19;;;;;;;11.95;3.72;;;;;;;31.28;34.13;99066.28;4995658;28;20150;-74
2021/06/17 08:41:45;;;;;;;6.88;3.88;;;;;;;31.18;34.46;99061.34;4994202;28;20038;-74
2021/06/17 08:44:10;;;;;;;5.22;3.85;;;;;;;31.27;34.82;99060.00;4987738;28;20045;-74
2021/06/17 08:46:38;;;;;;;12.70;4.40;;;;;;;31.37;35.35;99060.28;5005420;28;20528;-74
2021/06/17 08:49:03;;;;;;;7.95;3.70;;;;;;;31.10;35.31;99054.31;5004700;28;20045;-73
2021/06/17 08:51:30;;;;;;;30.98;9.88;;;;;;;31.00;35.25;99049.41;5004499;28;20787;-75
2021/06/17 08:53:56;;;;;;;61.53;15.65;;;;;;;30.97;35.60;99041.69;4990059;28;20084;-74
2021/06/17 08:56:22;;;;;;;9.38;4.90;;;;;;;30.88;35.46;99042.22;4996027;28;20437;-75
2021/06/17 08:58:49;;;;;;;9.68;5.05;;;;;;;31.02;35.21;99049.19;4997077;28;20057;-75
2021/06/17 09:01:15;;;;;;;8.25;3.92;;;;;;;31.62;34.81;99045.75;4996455;28;20528;-73
2021/06/17 09:03:42;;;;;;;6.00;4.40;;;;;;;32.53;33.15;99046.47;4984750;28;20438;-74
2021/06/17 09:06:08;;;;;;;5.70;3.83;;;;;;;32.52;32.86;99038.56;5001440;28;20094;-74
2021/06/17 09:08:34;;;;;;;5.90;3.97;;;;;;;32.46;32.73;99038.38;4998562;28;20049;-75
2021/06/17 09:11:03;;;;;;;9.88;4.50;;;;;;;32.79;32.30;99019.78;5002201;28;20037;-74
2021/06/17 09:13:34;;;;;;;7.45;4.40;;;;;;;33.30;32.10;99019.00;5002281;28;20034;-74
2021/06/17 09:16:00;;;;;;;6.20;4.30;;;;;;;33.46;31.47;99013.81;4994271;28;20102;-73
2021/06/17 09:18:28;;;;;;;5.35;4.75;;;;;;;33.09;31.40;98998.63;5008550;28;20037;-75
2021/06/17 09:21:02;;;;;;;9.60;4.55;;;;;;;33.64;31.20;98997.25;5007732;28;20049;-73
2021/06/17 09:23:51;;;;;;;7.55;4.85;;;;;;;33.36;30.89;98998.88;5001382;28;20488;-76
2021/06/17 09:26:20;;;;;;;6.75;4.30;;;;;;;33.34;31.13;98998.28;4995142;28;20103;-75
2021/06/17 09:28:52;;;;;;;6.13;4.63;;;;;;;33.34;31.72;98997.47;5011388;28;20144;-72
2021/06/17 09:31:24;;;;;;;9.25;4.65;;;;;;;33.09;32.18;98998.63;5007771;28;20046;-76
2021/06/17 09:33:51;;;;;;;5.95;4.88;;;;;;;33.66;30.50;98999.75;4998355;28;20652;-75
2021/06/17 09:36:24;;;;;;;10.32;6.10;;;;;;;33.78;31.04;99008.72;4990547;28;20046;-75
2021/06/17 09:38:54;;;;;;;8.40;4.75;;;;;;;34.26;30.42;99017.47;4990149;28;20120;-75
2021/06/17 09:41:40;;;;;;;8.15;4.70;;;;;;;35.00;28.88;99014.44;4985348;28;20042;-74
2021/06/17 09:44:27;;;;;;;8.82;5.68;;;;;;;34.96;29.50;99007.84;4985600;28;20038;-75
2021/06/17 09:47:16;;;;;;;9.27;5.45;;;;;;;36.00;27.54;99020.53;4984906;28;20046;-75
2021/06/17 09:49:43;;;;;;;17.40;6.60;;;;;;;36.46;27.27;99009.16;4984983;28;20041;-75
2021/06/17 09:52:11;;;;;;;16.08;6.93;;;;;;;37.00;26.57;99019.09;4985864;28;20042;-75
2021/06/17 09:54:39;;;;;;;7.68;5.72;;;;;;;37.29;25.59;99023.09;4988945;28;20561;-74
2021/06/17 09:57:07;;;;;;;8.32;5.03;;;;;;;37.77;24.72;99026.53;4989554;28;20069;-74
2021/06/17 09:59:44;;;;;;;11.70;5.80;;;;;;;37.82;25.74;99033.97;4989877;28;20744;-75
2021/06/17 10:02:18;;;;;;;6.88;4.90;;;;;;;37.88;24.96;99034.78;4989151;28;20043;-73
2021/06/17 10:04:44;;;;;;;8.00;4.90;;;;;;;37.09;26.09;99042.22;4992635;28;20042;-74
2021/06/17 10:07:09;;;;;;;7.97;4.43;;;;;;;36.68;26.75;99045.56;4987092;28;20042;-72
2021/06/17 10:09:36;;;;;;;6.15;5.32;;;;;;;36.20;27.38;99047.38;4988075;28;20101;-73
2021/06/17 10:12:02;;;;;;;8.35;5.32;;;;;;;35.96;27.77;99044.13;4993966;28;20041;-73
2021/06/17 10:14:29;;;;;;;8.23;5.90;;;;;;;35.87;28.49;99053.91;5005450;28;20409;-73
2021/06/17 10:16:55;;;;;;;7.03;4.97;;;;;;;35.71;28.94;99054.81;4989307;28;20042;-74
2021/06/17 10:19:21;;;;;;;11.73;5.43;;;;;;;35.44;29.01;99052.84;5000736;28;20033;-73
2021/06/17 10:21:48;;;;;;;12.65;6.25;;;;;;;35.21;29.77;99053.94;5011721;28;20037;-74
2021/06/17 10:24:22;;;;;;;10.80;6.72;;;;;;;35.83;28.74;99033.56;5016284;28;20040;-73
2021/06/17 10:26:51;;;;;;;10.32;6.00;;;;;;;36.88;27.22;99052.28;5009445;28;20120;-73
2021/06/17 10:29:28;;;;;;;5.63;5.03;;;;;;;37.00;26.93;99054.81;5013793;28;20041;-74
2021/06/17 10:31:55;;;;;;;7.97;5.40;;;;;;;36.37;26.83;99051.91;5007256;28;20405;-73
2021/06/17 10:34:23;;;;;;;10.65;6.55;;;;;;;35.96;27.35;99046.00;4992166;28;20048;-76
2021/06/17 10:37:30;;;;;;;7.93;6.25;;;;;;;35.68;27.85;99057.00;4986579;28;20046;-73
2021/06/17 10:40:23;;;;;;;8.07;5.30;;;;;;;35.40;29.08;99054.47;4945454;29;20495;-75
2021/06/17 10:42:51;;;;;;;8.70;5.47;;;;;;;35.28;29.02;99053.78;4976569;28;20145;-75
2021/06/17 10:45:39;;;;;;;10.82;5.90;;;;;;;36.14;27.17;99064.91;5004479;28;20111;-74
2021/06/17 10:48:47;;;;;;;11.38;5.82;;;;;;;37.05;25.89;99065.88;4996095;28;20438;-76
2021/06/17 10:51:13;;;;;;;7.65;5.10;;;;;;;37.48;24.97;99064.66;5012591;28;20049;-75
2021/06/17 10:53:39;;;;;;;8.13;4.90;;;;;;;37.73;23.82;99057.59;5010941;28;20804;-73
2021/06/17 10:56:06;;;;;;;8.45;4.88;;;;;;;37.34;24.88;99067.09;5003214;28;20046;-74
2021/06/17 10:58:40;;;;;;;12.00;5.85;;;;;;;36.26;26.18;99065.53;5026481;28;20571;-76
2021/06/17 11:01:26;;;;;;;6.40;4.30;;;;;;;35.81;27.07;99072.25;4996139;28;20049;-75
2021/06/17 11:04:17;;;;;;;11.68;4.90;;;;;;;36.07;26.43;99070.56;4995157;28;20052;-74
2021/06/17 11:06:49;;;;;;;8.40;4.57;;;;;;;35.88;25.10;99072.00;5005483;28;20037;-73
2021/06/17 11:09:32;;;;;;;8.60;3.42;;;;;;;35.61;24.96;99072.81;5006195;28;20030;-73
2021/06/17 11:11:58;;;;;;;6.85;4.63;;;;;;;35.46;25.00;99064.38;5001453;28;20490;-73
2021/06/17 11:14:23;;;;;;;10.20;5.15;;;;;;;35.24;25.16;99073.44;4984580;28;20097;-72
2021/06/17 11:16:54;;;;;;;7.80;4.05;;;;;;;35.18;26.00;99066.25;4978299;28;20406;-74
2021/06/17 11:19:19;;;;;;;11.27;4.55;;;;;;;35.21;26.24;99071.22;4999049;28;20096;-73
2021/06/17 11:21:46;;;;;;;11.60;4.53;;;;;;;34.90;26.78;99071.84;5013355;28;20053;-75
2021/06/17 11:24:12;;;;;;;6.63;3.92;;;;;;;34.72;27.07;99072.97;5025319;28;20059;-74
2021/06/17 11:26:49;;;;;;;12.63;4.43;;;;;;;34.79;26.96;99074.44;5018472;28;20041;-75
2021/06/17 11:29:42;;;;;;;10.48;4.25;;;;;;;34.42;27.28;99074.94;4986160;28;20385;-72
2021/06/17 11:32:29;;;;;;;8.77;4.35;;;;;;;34.53;27.44;99067.75;4973751;28;20417;-73
2021/06/17 11:34:55;;;;;;;9.63;4.40;;;;;;;34.59;27.69;99063.19;4986142;28;20046;-72
2021/06/17 11:37:21;;;;;;;8.10;4.60;;;;;;;34.63;27.31;99069.81;5004819;28;20125;-72
2021/06/17 11:39:48;;;;;;;9.98;4.28;;;;;;;34.47;27.54;99059.69;5005874;28;20045;-74
2021/06/17 11:42:17;;;;;;;11.43;4.38;;;;;;;34.56;27.92;99058.19;5006466;28;20034;-74
2021/06/17 11:44:43;;;;;;;7.03;3.90;;;;;;;34.65;27.70;99062.19;5006233;28;20056;-73
2021/06/17 11:47:11;;;;;;;11.82;3.88;;;;;;;34.68;27.46;99061.69;5004022;28;20714;-73